Time;durP1;ratioP1;P1;durP2;ratioP2;P2;SDS_P1;SDS_P2;PMS_P1;PMS_P2;Temp;Humidity;BMP_temperature;BMP_pressure;BME280_temperature;BME280_humidity;BME280_pressure;Samples;Min_cycle;Max_cycle;Signal;HPM_P1;HPM_P2
2023/07/20 00:01:15;;;;;;;3.72;1.58;;;21.10;96.70;;;;;;5014777;28;20393;-45
2023/07/20 00:03:40;;;;;;;3.90;2.00;;;21.10;96.90;;;;;;5014748;28;20026;-45
2023/07/20 00:06:06;;;;;;;3.45;2.00;;;21.10;97.30;;;;;;5014700;28;20065;-48
2023/07/20 00:08:31;;;;;;;3.30;1.60;;;21.00;98.70;;;;;;5014165;28;20075;-45
2023/07/20 00:10:57;;;;;;;6.90;2.00;;;21.00;99.20;;;;;;5014786;28;20026;-46
2023/07/20 00:13:22;;;;;;;6.22;1.88;;;21.00;99.80;;;;;;4996968;28;20025;-49
2023/07/20 00:15:48;;;;;;;4.00;1.85;;;21.00;99.10;;;;;;5014673;28;20025;-46
2023/07/20 00:18:14;;;;;;;3.50;1.75;;;21.00;98.90;;;;;;5014250;28;20041;-45
2023/07/20 00:20:39;;;;;;;13.73;1.90;;;20.80;99.10;;;;;;5014554;28;20029;-49
2023/07/20 00:23:05;;;;;;;4.80;2.20;;;20.60;99.90;;;;;;5014363;28;20643;-47
2023/07/20 00:25:31;;;;;;;4.55;1.80;;;20.60;99.90;;;;;;5014244;28;20393;-46
2023/07/20 00:27:57;;;;;;;2.90;2.10;;;20.40;99.90;;;;;;5013997;28;20034;-52
2023/07/20 00:30:22;;;;;;;5.25;1.95;;;20.20;99.90;;;;;;5014177;28;20044;-49
2023/07/20 00:32:48;;;;;;;9.95;1.83;;;20.30;99.90;;;;;;4996845;28;20037;-47
2023/07/20 00:35:14;;;;;;;6.30;2.72;;;20.20;99.90;;;;;;4996361;28;20025;-49
2023/07/20 00:37:39;;;;;;;4.10;2.45;;;20.20;99.90;;;;;;5013615;28;20034;-50
2023/07/20 00:40:07;;;;;;;8.52;2.63;;;20.10;99.90;;;;;;5014288;28;20021;-48
2023/07/20 00:42:33;;;;;;;8.20;2.35;;;20.00;99.90;;;;;;5013900;28;20018;-49
2023/07/20 00:44:58;;;;;;;7.00;2.15;;;19.90;99.90;;;;;;5014003;28;20022;-48
2023/07/20 00:47:24;;;;;;;6.82;2.47;;;19.70;99.90;;;;;;5013580;28;20397;-47
2023/07/20 00:49:51;;;;;;;5.72;2.35;;;19.60;99.90;;;;;;5012988;28;20034;-50
2023/07/20 00:52:18;;;;;;;8.82;2.67;;;19.60;99.90;;;;;;5013882;28;20022;-46
2023/07/20 00:54:44;;;;;;;6.35;2.60;;;19.60;99.90;;;;;;5013654;28;20028;-48
2023/07/20 00:57:12;;;;;;;6.22;2.53;;;19.50;99.90;;;;;;4995793;28;20117;-46
2023/07/20 00:59:38;;;;;;;8.35;2.53;;;19.50;99.90;;;;;;5013480;28;20018;-46
2023/07/20 01:02:03;;;;;;;4.75;2.45;;;19.40;99.90;;;;;;5013476;28;20093;-49
2023/07/20 01:04:29;;;;;;;2.28;2.08;;;19.40;99.90;;;;;;5013290;28;20064;-46
2023/07/20 01:07:01;;;;;;;3.88;2.20;;;19.30;99.90;;;;;;5013075;28;20034;-46
2023/07/20 01:09:36;;;;;;;4.43;2.40;;;19.20;99.90;;;;;;5013137;28;20122;-48
2023/07/20 01:12:04;;;;;;;6.22;2.10;;;19.20;99.90;;;;;;5013271;28;20483;-47
2023/07/20 01:14:32;;;;;;;2.97;2.20;;;19.10;99.90;;;;;;5013177;28;20125;-46
2023/07/20 01:16:58;;;;;;;6.15;2.15;;;19.00;99.90;;;;;;5012944;28;20026;-46
2023/07/20 01:19:23;;;;;;;7.85;2.50;;;18.90;99.90;;;;;;4995576;28;20014;-48
2023/07/20 01:22:14;;;;;;;4.07;2.20;;;18.90;99.90;;;;;;4995413;28;20393;-47
2023/07/20 01:25:11;;;;;;;5.50;2.35;;;18.80;99.90;;;;;;5012952;28;20085;-46
2023/07/20 01:28:02;;;;;;;12.40;2.70;;;18.80;99.90;;;;;;5012774;28;20049;-46
2023/07/20 01:30:45;;;;;;;5.45;3.08;;;18.70;99.90;;;;;;5013047;28;20068;-47
2023/07/20 01:33:15;;;;;;;6.38;2.35;;;18.70;99.90;;;;;;5012716;28;20501;-47
2023/07/20 01:35:43;;;;;;;4.95;2.42;;;18.70;99.90;;;;;;5012844;28;20033;-46
2023/07/20 01:38:11;;;;;;;7.65;2.58;;;18.60;99.90;;;;;;5012553;28;20081;-45
2023/07/20 01:40:37;;;;;;;6.78;2.20;;;18.70;99.90;;;;;;5012763;28;20025;-46
2023/07/20 01:43:03;;;;;;;6.82;2.95;;;18.60;99.90;;;;;;5012784;28;20076;-48
2023/07/20 01:45:28;;;;;;;3.67;2.63;;;18.60;99.90;;;;;;5012993;28;20029;-46
2023/07/20 01:47:54;;;;;;;3.50;2.00;;;18.60;99.90;;;;;;5012283;28;20435;-46
2023/07/20 01:50:19;;;;;;;4.70;2.13;;;18.50;99.90;;;;;;5012788;28;20030;-47
2023/07/20 01:52:45;;;;;;;4.85;3.05;;;18.50;99.90;;;;;;5012528;28;20033;-48
2023/07/20 01:55:10;;;;;;;6.65;2.40;;;18.40;99.90;;;;;;5012495;28;20397;-46
2023/07/20 01:57:36;;;;;;;9.18;2.47;;;18.40;99.90;;;;;;5012197;28;20026;-47
2023/07/20 02:00:02;;;;;;;6.22;2.80;;;18.40;99.90;;;;;;4994869;28;20025;-47
2023/07/20 02:02:28;;;;;;;7.22;2.53;;;18.40;99.90;;;;;;5012372;28;20025;-49
2023/07/20 02:04:54;;;;;;;4.47;2.22;;;18.30;99.90;;;;;;5012398;28;20015;-44
2023/07/20 02:07:19;;;;;;;4.85;2.85;;;18.20;99.90;;;;;;4994519;28;20025;-46
2023/07/20 02:09:45;;;;;;;7.68;2.65;;;18.10;99.90;;;;;;5012117;28;20022;-46
2023/07/20 02:12:10;;;;;;;2.95;2.10;;;18.10;99.90;;;;;;4994546;28;20034;-48
2023/07/20 02:14:36;;;;;;;4.22;2.35;;;18.10;99.90;;;;;;4994655;28;20033;-45
2023/07/20 02:17:01;;;;;;;6.30;2.78;;;18.10;99.90;;;;;;5012093;28;20030;-46
2023/07/20 02:19:28;;;;;;;4.85;2.50;;;18.00;99.90;;;;;;5012078;28;20362;-49
2023/07/20 02:21:53;;;;;;;3.75;2.40;;;18.00;99.90;;;;;;5012015;28;20022;-43
2023/07/20 02:24:19;;;;;;;3.70;2.35;;;18.00;99.90;;;;;;5012030;28;20362;-48
2023/07/20 02:26:44;;;;;;;5.90;2.55;;;18.00;99.90;;;;;;5011765;28;20041;-48
2023/07/20 02:29:11;;;;;;;3.60;2.42;;;18.00;99.90;;;;;;5012043;28;20058;-47
2023/07/20 02:31:39;;;;;;;2.55;2.03;;;17.90;99.90;;;;;;5011675;28;20057;-48
2023/07/20 02:34:08;;;;;;;2.22;2.03;;;17.90;99.90;;;;;;5011872;28;20026;-48
2023/07/20 02:36:35;;;;;;;6.07;2.45;;;17.80;99.90;;;;;;5011497;28;20022;-46
2023/07/20 02:39:02;;;;;;;2.95;2.63;;;17.80;99.90;;;;;;5011943;28;20026;-47
2023/07/20 02:41:27;;;;;;;3.58;2.03;;;17.70;99.90;;;;;;5011712;28;20029;-52
2023/07/20 02:43:53;;;;;;;6.03;2.72;;;17.70;99.90;;;;;;5011728;28;20417;-46
2023/07/20 02:46:18;;;;;;;2.67;1.92;;;17.70;99.90;;;;;;5011484;28;20026;-42
2023/07/20 02:48:44;;;;;;;7.32;2.17;;;17.70;99.90;;;;;;5011889;28;20046;-50
2023/07/20 02:51:11;;;;;;;2.47;1.95;;;17.70;99.90;;;;;;5011670;28;20018;-46
2023/07/20 02:53:36;;;;;;;4.88;2.63;;;17.70;99.90;;;;;;5011682;28;20113;-45
2023/07/20 02:56:02;;;;;;;8.98;2.90;;;17.70;99.90;;;;;;5011607;28;20105;-45
2023/07/20 02:58:27;;;;;;;5.07;2.42;;;17.60;99.90;;;;;;5011489;28;20107;-48
2023/07/20 03:00:53;;;;;;;6.05;1.90;;;17.50;99.90;;;;;;5011574;28;20022;-45
2023/07/20 03:03:19;;;;;;;10.02;2.67;;;17.40;99.90;;;;;;4993907;28;20026;-49
2023/07/20 03:05:45;;;;;;;6.43;2.40;;;17.40;99.90;;;;;;4994348;28;20037;-47
2023/07/20 03:08:10;;;;;;;3.78;2.00;;;17.30;99.90;;;;;;5011481;28;20481;-47
2023/07/20 03:10:44;;;;;;;3.65;2.30;;;17.20;99.90;;;;;;5011329;28;20135;-51
2023/07/20 03:13:10;;;;;;;4.87;2.57;;;17.10;99.90;;;;;;5012141;28;20115;-49
2023/07/20 03:15:35;;;;;;;3.35;1.92;;;17.00;99.90;;;;;;5015454;28;20057;-52
2023/07/20 03:18:01;;;;;;;5.18;2.38;;;17.00;99.90;;;;;;5015209;28;20108;-47
2023/07/20 03:20:26;;;;;;;4.38;2.22;;;17.00;99.90;;;;;;4997837;28;20116;-47
2023/07/20 03:22:52;;;;;;;7.05;2.85;;;17.00;99.90;;;;;;5015245;28;20030;-47
2023/07/20 03:25:17;;;;;;;5.30;2.47;;;17.00;99.90;;;;;;4997858;28;20018;-46
2023/07/20 03:27:43;;;;;;;3.67;2.35;;;17.00;99.90;;;;;;5015116;28;20389;-48
2023/07/20 03:30:09;;;;;;;5.35;2.50;;;17.00;99.90;;;;;;5015391;28;20194;-47
2023/07/20 03:32:35;;;;;;;6.15;2.25;;;17.00;99.90;;;;;;5015165;28;20041;-44
2023/07/20 03:35:01;;;;;;;5.38;2.35;;;16.90;99.90;;;;;;5015396;28;20036;-49
2023/07/20 03:37:27;;;;;;;7.70;2.70;;;17.00;99.90;;;;;;4996960;28;20026;-47
2023/07/20 03:39:52;;;;;;;5.90;2.50;;;16.90;99.90;;;;;;5015038;28;20022;-47
2023/07/20 03:42:18;;;;;;;4.15;2.50;;;17.00;99.90;;;;;;5014898;28;20037;-51
2023/07/20 03:44:43;;;;;;;5.00;2.50;;;17.00;99.90;;;;;;5015441;28;20018;-47
2023/07/20 03:47:09;;;;;;;10.32;2.38;;;16.90;99.90;;;;;;5014731;28;20477;-47
2023/07/20 03:49:35;;;;;;;6.00;2.40;;;17.00;99.90;;;;;;5015330;28;20354;-47
2023/07/20 03:52:03;;;;;;;4.40;2.05;;;17.00;99.90;;;;;;5014681;28;20033;-49
2023/07/20 03:54:29;;;;;;;4.38;2.35;;;17.00;99.90;;;;;;5014798;28;20148;-49
2023/07/20 03:56:54;;;;;;;5.85;2.08;;;16.90;99.90;;;;;;5014383;28;20516;-48
2023/07/20 03:59:20;;;;;;;4.78;2.10;;;16.90;99.90;;;;;;5014806;28;20030;-47
2023/07/20 04:01:45;;;;;;;5.45;2.10;;;16.90;99.90;;;;;;5014547;28;20026;-46
2023/07/20 04:04:11;;;;;;;5.63;2.40;;;16.90;99.90;;;;;;5014583;28;20157;-47
2023/07/20 04:06:37;;;;;;;4.60;2.40;;;16.90;99.90;;;;;;5014213;28;20573;-46
2023/07/20 04:09:04;;;;;;;8.93;3.15;;;16.90;99.90;;;;;;5014251;28;20108;-47
2023/07/20 04:11:30;;;;;;;8.38;2.30;;;16.80;99.90;;;;;;5014852;28;20029;-50
2023/07/20 04:13:56;;;;;;;9.10;2.67;;;16.80;99.90;;;;;;5014592;28;20033;-47
2023/07/20 04:16:21;;;;;;;5.72;2.40;;;16.90;99.90;;;;;;5014077;28;20064;-46
2023/07/20 04:18:47;;;;;;;4.60;2.42;;;16.90;99.90;;;;;;5014275;28;20029;-47
2023/07/20 04:21:12;;;;;;;3.83;2.30;;;16.90;99.90;;;;;;5014226;28;20222;-47
2023/07/20 04:23:38;;;;;;;3.47;2.10;;;16.90;99.90;;;;;;5014566;28;20104;-47
2023/07/20 04:26:03;;;;;;;3.33;2.50;;;16.90;99.90;;;;;;4995381;28;20029;-51
2023/07/20 04:28:29;;;;;;;2.50;2.30;;;16.90;99.90;;;;;;5014158;28;20032;-46
2023/07/20 04:30:54;;;;;;;4.25;2.47;;;16.90;99.90;;;;;;5014260;28;20118;-49
2023/07/20 04:33:20;;;;;;;4.68;2.40;;;16.90;99.90;;;;;;5013849;28;20515;-46
2023/07/20 04:35:53;;;;;;;4.63;3.08;;;16.90;99.90;;;;;;5014146;28;20038;-47
2023/07/20 04:38:20;;;;;;;3.42;2.15;;;16.90;99.90;;;;;;4996444;28;20064;-46
2023/07/20 04:40:47;;;;;;;3.47;2.03;;;16.90;99.90;;;;;;4996450;28;20025;-50
2023/07/20 04:43:13;;;;;;;4.68;2.22;;;17.00;99.90;;;;;;5013894;28;20030;-46
2023/07/20 04:45:39;;;;;;;5.38;2.42;;;17.10;99.90;;;;;;4996430;28;20371;-46
2023/07/20 04:48:10;;;;;;;3.63;2.10;;;17.10;99.90;;;;;;5013391;28;20041;-47
2023/07/20 04:50:35;;;;;;;5.88;3.08;;;17.30;99.90;;;;;;5013767;28;20030;-48
2023/07/20 04:53:01;;;;;;;3.33;2.15;;;17.30;99.90;;;;;;5013700;28;20500;-47
2023/07/20 04:55:27;;;;;;;5.00;2.40;;;17.50;99.90;;;;;;5013602;28;20096;-48
2023/07/20 04:57:53;;;;;;;3.65;2.08;;;17.70;99.90;;;;;;4980049;28;20500;-47
2023/07/20 05:00:19;;;;;;;6.20;2.47;;;17.90;99.90;;;;;;5013567;28;20113;-48
2023/07/20 05:02:47;;;;;;;2.53;2.17;;;18.30;99.90;;;;;;5013417;28;20133;-44
2023/07/20 05:05:13;;;;;;;3.53;2.20;;;18.70;99.90;;;;;;5013401;28;20489;-47
2023/07/20 05:07:38;;;;;;;2.25;1.88;;;19.30;99.90;;;;;;5013223;28;20037;-45
2023/07/20 05:10:04;;;;;;;5.07;2.33;;;19.80;99.90;;;;;;5013204;28;20144;-49
2023/07/20 05:12:30;;;;;;;4.78;2.15;;;20.50;99.90;;;;;;5013266;28;20386;-47
2023/07/20 05:14:55;;;;;;;7.35;2.90;;;21.10;99.90;;;;;;5013284;28;20057;-48
2023/07/20 05:17:21;;;;;;;3.05;1.98;;;21.80;99.90;;;;;;5013094;28;20030;-48
2023/07/20 05:19:46;;;;;;;3.90;2.90;;;22.40;99.20;;;;;;5013329;28;20045;-47
2023/07/20 05:22:13;;;;;;;3.22;2.08;;;22.70;98.20;;;;;;4995709;28;20026;-48
2023/07/20 05:24:39;;;;;;;4.05;2.20;;;23.20;98.00;;;;;;5013098;28;20497;-45
2023/07/20 05:27:05;;;;;;;2.40;1.42;;;23.70;96.80;;;;;;4994940;28;20033;-47
2023/07/20 05:29:30;;;;;;;5.82;1.75;;;24.10;95.90;;;;;;5012957;28;20048;-48
2023/07/20 05:31:56;;;;;;;2.95;2.10;;;24.60;95.10;;;;;;5012804;28;20444;-51
2023/07/20 05:34:21;;;;;;;6.93;1.88;;;25.30;94.20;;;;;;5012984;28;20447;-47
2023/07/20 05:36:47;;;;;;;4.78;1.80;;;25.60;93.20;;;;;;4994602;28;20553;-47
2023/07/20 05:39:12;;;;;;;2.85;1.95;;;25.50;93.10;;;;;;5012948;28;20489;-47
2023/07/20 05:41:38;;;;;;;3.25;1.90;;;25.80;93.20;;;;;;5012630;28;20022;-48
2023/07/20 05:44:03;;;;;;;8.70;2.03;;;25.90;92.70;;;;;;5012577;28;20509;-47
2023/07/20 05:46:29;;;;;;;11.15;1.98;;;26.10;92.20;;;;;;5012353;28;20038;-49
2023/07/20 05:48:54;;;;;;;7.22;2.38;;;26.50;92.10;;;;;;5012560;28;20159;-50
2023/07/20 05:51:20;;;;;;;4.70;1.90;;;26.80;91.20;;;;;;4994835;28;20018;-47
2023/07/20 05:53:45;;;;;;;3.20;1.55;;;26.70;90.70;;;;;;5012709;28;20113;-52
2023/07/20 05:56:14;;;;;;;10.68;1.90;;;26.80;90.70;;;;;;5012404;28;20025;-47
2023/07/20 05:58:39;;;;;;;2.85;1.70;;;27.20;90.50;;;;;;5012274;28;20109;-50
2023/07/20 06:01:07;;;;;;;4.63;2.13;;;27.40;90.20;;;;;;5012449;28;20084;-47
2023/07/20 06:03:34;;;;;;;6.03;2.03;;;27.80;89.60;;;;;;5012254;28;20390;-49
2023/07/20 06:06:01;;;;;;;8.43;1.75;;;27.80;88.90;;;;;;5012287;28;20029;-49
2023/07/20 06:08:30;;;;;;;7.47;1.90;;;28.00;87.80;;;;;;5012247;28;20054;-47
2023/07/20 06:10:56;;;;;;;2.65;1.60;;;27.70;88.20;;;;;;5012281;28;20065;-49
2023/07/20 06:13:22;;;;;;;4.70;1.63;;;27.20;89.60;;;;;;5012660;28;20030;-52
2023/07/20 06:15:48;;;;;;;3.85;1.90;;;27.60;88.80;;;;;;5012276;28;20033;-48
2023/07/20 06:18:13;;;;;;;3.08;1.92;;;27.90;87.60;;;;;;5011920;28;20022;-52
2023/07/20 06:20:39;;;;;;;6.22;2.15;;;28.20;87.20;;;;;;5012248;28;20426;-51
2023/07/20 06:23:05;;;;;;;2.50;1.50;;;28.80;86.00;;;;;;5012101;28;20615;-50
2023/07/20 06:25:30;;;;;;;2.65;1.50;;;29.40;84.30;;;;;;5012076;28;20401;-47
2023/07/20 06:27:57;;;;;;;2.58;1.60;;;29.90;82.20;;;;;;5011871;28;20041;-50
2023/07/20 06:30:22;;;;;;;6.15;3.72;;;29.60;81.80;;;;;;5011912;28;20497;-49
2023/07/20 06:32:49;;;;;;;2.95;1.38;;;30.10;82.10;;;;;;5033059;22;20141;-53
2023/07/20 06:35:15;;;;;;;5.03;1.30;;;30.90;80.10;;;;;;5011998;28;20026;-52
2023/07/20 06:37:40;;;;;;;2.90;1.60;;;31.10;78.80;;;;;;4993974;28;20076;-50
2023/07/20 06:40:08;;;;;;;3.03;1.55;;;31.50;77.10;;;;;;5012081;28;20034;-52
2023/07/20 06:42:34;;;;;;;4.25;1.58;;;30.90;77.20;;;;;;4994190;28;20432;-52
2023/07/20 06:45:00;;;;;;;6.53;2.13;;;30.50;77.50;;;;;;5011956;28;20076;-54
2023/07/20 06:47:26;;;;;;;2.72;1.60;;;30.90;77.00;;;;;;4993635;28;20030;-54
2023/07/20 06:49:52;;;;;;;3.15;1.80;;;30.70;77.40;;;;;;5011618;28;20029;-54
2023/07/20 06:52:17;;;;;;;7.88;1.80;;;31.30;76.80;;;;;;5011711;28;20385;-52
2023/07/20 06:54:43;;;;;;;9.93;1.85;;;31.40;76.20;;;;;;5011802;28;20497;-54
2023/07/20 06:57:08;;;;;;;5.63;1.38;;;31.30;75.30;;;;;;5011340;28;20037;-53
2023/07/20 06:59:34;;;;;;;5.38;1.83;;;30.90;75.70;;;;;;5011761;28;20034;-56
2023/07/20 07:01:59;;;;;;;4.55;1.50;;;29.20;78.20;;;;;;4994049;28;20030;-54
2023/07/20 07:04:25;;;;;;;5.07;1.80;;;28.20;80.30;;;;;;5011656;28;20025;-54
2023/07/20 07:06:50;;;;;;;5.47;2.20;;;27.20;82.60;;;;;;5011717;28;20065;-54
2023/07/20 07:09:16;;;;;;;3.20;1.42;;;26.70;84.60;;;;;;4993841;28;20033;-54
2023/07/20 07:11:41;;;;;;;4.25;1.60;;;26.40;85.40;;;;;;5011603;28;20041;-55
2023/07/20 07:14:07;;;;;;;2.83;1.65;;;26.00;86.90;;;;;;4994171;28;20025;-56
2023/07/20 07:16:32;;;;;;;2.30;1.52;;;26.90;86.50;;;;;;5011354;28;20050;-56
2023/07/20 07:18:58;;;;;;;4.53;1.85;;;28.20;83.60;;;;;;5011601;28;20084;-55
2023/07/20 07:21:25;;;;;;;2.13;1.27;;;29.10;80.80;;;;;;5011705;28;20022;-56
2023/07/20 07:23:52;;;;;;;2.20;1.58;;;29.00;80.30;;;;;;5011629;28;20385;-54
2023/07/20 07:26:19;;;;;;;3.90;1.85;;;28.40;80.70;;;;;;5011292;28;20385;-55
2023/07/20 07:28:44;;;;;;;3.67;2.13;;;27.70;82.30;;;;;;5011534;28;20030;-53
2023/07/20 07:31:10;;;;;;;7.50;1.77;;;26.60;84.20;;;;;;4993957;28;20104;-51
2023/07/20 07:33:35;;;;;;;4.75;1.73;;;26.00;86.50;;;;;;5011314;28;20101;-52
2023/07/20 07:36:01;;;;;;;3.00;1.52;;;26.00;88.70;;;;;;5011421;28;20025;-52
2023/07/20 07:38:26;;;;;;;4.43;1.75;;;26.10;87.60;;;;;;4993433;28;20385;-56
2023/07/20 07:40:52;;;;;;;3.90;1.83;;;26.90;86.40;;;;;;5011463;28;20393;-54
2023/07/20 07:43:17;;;;;;;4.10;2.10;;;27.10;84.30;;;;;;5011288;28;20029;-53
2023/07/20 07:45:43;;;;;;;3.42;2.15;;;27.20;84.60;;;;;;5011143;28;20030;-53
2023/07/20 07:48:11;;;;;;;4.38;1.92;;;27.20;83.90;;;;;;5011273;28;20037;-54
2023/07/20 07:50:37;;;;;;;3.20;1.90;;;26.20;85.80;;;;;;5011476;28;20109;-51
2023/07/20 07:53:03;;;;;;;2.97;1.60;;;26.20;87.60;;;;;;5011431;28;20029;-56
2023/07/20 07:55:28;;;;;;;13.32;2.60;;;27.00;86.60;;;;;;5011447;28;20109;-54
2023/07/20 07:57:54;;;;;;;6.53;1.60;;;27.70;83.30;;;;;;5011445;28;20034;-52
2023/07/20 08:00:20;;;;;;;2.22;1.75;;;28.50;82.30;;;;;;5013303;28;20018;-52
2023/07/20 08:02:47;;;;;;;8.95;1.40;;;29.20;80.70;;;;;;5014662;28;20029;-56
2023/07/20 08:05:13;;;;;;;3.58;1.58;;;28.70;79.40;;;;;;4997128;28;20025;-55
2023/07/20 08:07:39;;;;;;;3.00;1.70;;;28.10;82.40;;;;;;5014402;28;20238;-50
2023/07/20 08:10:05;;;;;;;3.70;1.20;;;28.50;82.20;;;;;;5014389;28;20033;-55
2023/07/20 08:12:31;;;;;;;5.20;1.65;;;29.40;80.10;;;;;;5014369;28;20117;-52
2023/07/20 08:14:57;;;;;;;3.80;1.30;;;30.10;77.70;;;;;;5014585;28;20019;-51
2023/07/20 08:17:22;;;;;;;3.55;1.48;;;30.40;77.50;;;;;;5014175;28;20389;-50
2023/07/20 08:19:48;;;;;;;1.75;1.48;;;31.20;75.70;;;;;;5014396;28;20022;-57
2023/07/20 08:22:13;;;;;;;2.00;1.23;;;31.60;73.90;;;;;;5014514;28;20036;-55
2023/07/20 08:24:40;;;;;;;6.22;1.75;;;31.90;73.20;;;;;;5014445;28;20033;-53
2023/07/20 08:27:06;;;;;;;3.85;1.80;;;32.00;72.50;;;;;;5014057;28;20045;-50
2023/07/20 08:29:32;;;;;;;3.70;1.70;;;31.60;72.70;;;;;;5014417;28;20084;-54
2023/07/20 08:31:57;;;;;;;4.38;1.88;;;30.50;74.80;;;;;;5014147;28;20053;-55
2023/07/20 08:34:23;;;;;;;2.78;1.38;;;30.20;76.10;;;;;;5014569;28;20030;-56
2023/07/20 08:36:48;;;;;;;4.88;1.95;;;29.80;76.60;;;;;;5013794;28;20053;-54
2023/07/20 08:39:14;;;;;;;2.00;1.50;;;29.30;76.70;;;;;;5013999;28;20497;-54
2023/07/20 08:41:42;;;;;;;2.20;1.65;;;28.30;78.70;;;;;;5013869;28;20037;-53
2023/07/20 08:44:08;;;;;;;3.00;1.50;;;27.50;80.10;;;;;;5014189;28;20026;-54
2023/07/20 08:46:37;;;;;;;2.63;1.60;;;26.70;82.50;;;;;;5013719;28;20022;-50
2023/07/20 08:49:02;;;;;;;2.78;2.00;;;26.10;83.70;;;;;;4996269;28;20428;-53
2023/07/20 08:51:30;;;;;;;3.45;1.55;;;25.90;84.40;;;;;;4996514;28;20097;-53
2023/07/20 08:53:55;;;;;;;3.65;1.70;;;25.60;85.20;;;;;;5013846;28;20060;-56
2023/07/20 08:56:23;;;;;;;2.58;1.55;;;25.80;85.80;;;;;;5013627;28;20458;-54
2023/07/20 08:58:51;;;;;;;3.45;1.75;;;25.80;85.90;;;;;;5013696;28;20048;-56
2023/07/20 09:01:18;;;;;;;2.90;1.70;;;25.70;86.60;;;;;;5013820;28;20073;-52
2023/07/20 09:03:45;;;;;;;4.75;1.60;;;25.90;86.50;;;;;;5013522;28;20109;-56
2023/07/20 09:06:10;;;;;;;5.47;1.88;;;26.40;86.20;;;;;;5013212;28;20029;-54
2023/07/20 09:08:40;;;;;;;4.15;1.90;;;26.80;84.70;;;;;;5012757;28;20074;-52
2023/07/20 09:11:05;;;;;;;4.38;2.72;;;27.10;83.40;;;;;;5012610;28;20030;-55
2023/07/20 09:13:33;;;;;;;2.45;2.25;;;27.30;82.00;;;;;;5013301;28;20026;-51
2023/07/20 09:15:59;;;;;;;5.35;1.85;;;27.50;82.20;;;;;;5013397;28;20033;-54
2023/07/20 09:18:25;;;;;;;2.38;1.83;;;27.60;82.40;;;;;;5013253;28;20034;-55
2023/07/20 09:20:51;;;;;;;4.97;1.52;;;27.70;81.00;;;;;;5013344;28;20105;-53
2023/07/20 09:23:16;;;;;;;2.13;1.70;;;27.60;80.40;;;;;;4995647;28;20061;-55
2023/07/20 09:25:42;;;;;;;4.47;2.58;;;27.60;81.30;;;;;;5013053;28;20025;-54
2023/07/20 09:28:07;;;;;;;3.38;1.33;;;27.70;81.30;;;;;;4995032;28;20018;-55
2023/07/20 09:30:33;;;;;;;4.95;2.05;;;27.80;81.40;;;;;;5013043;28;20152;-53
2023/07/20 09:32:59;;;;;;;3.58;1.95;;;27.60;81.40;;;;;;5012811;28;20408;-56
2023/07/20 09:35:25;;;;;;;2.00;1.30;;;27.40;81.60;;;;;;5012676;28;20025;-52
2023/07/20 09:37:59;;;;;;;2.08;1.50;;;27.60;82.50;;;;;;5012778;28;20037;-55
2023/07/20 09:40:25;;;;;;;5.38;1.92;;;27.50;81.80;;;;;;5012888;28;20093;-50
2023/07/20 09:42:53;;;;;;;2.10;1.50;;;26.80;81.50;;;;;;5012271;28;20393;-51
2023/07/20 09:45:19;;;;;;;3.40;1.65;;;26.80;83.70;;;;;;4994852;28;20034;-52
2023/07/20 09:47:45;;;;;;;2.55;1.90;;;26.80;83.70;;;;;;5012172;28;20033;-54
2023/07/20 09:50:10;;;;;;;2.50;1.65;;;26.50;82.80;;;;;;5012641;28;20295;-54
2023/07/20 09:52:44;;;;;;;2.90;1.60;;;26.30;81.70;;;;;;5012566;28;20485;-56
2023/07/20 09:55:11;;;;;;;1.85;1.30;;;26.30;81.90;;;;;;5012614;28;20022;-52
2023/07/20 09:57:38;;;;;;;3.95;1.70;;;26.50;82.10;;;;;;5012234;28;20037;-50
2023/07/20 10:00:12;;;;;;;2.10;1.30;;;26.50;82.50;;;;;;5012442;28;20389;-55
2023/07/20 10:02:43;;;;;;;3.00;1.42;;;26.40;82.40;;;;;;5012271;28;20050;-53
2023/07/20 10:05:14;;;;;;;1.75;1.20;;;25.80;82.00;;;;;;5012414;28;20053;-52
2023/07/20 10:07:47;;;;;;;2.78;1.52;;;25.60;83.20;;;;;;4994213;28;20114;-52
2023/07/20 10:10:16;;;;;;;2.00;1.20;;;25.50;83.70;;;;;;5011855;28;20076;-53
2023/07/20 10:12:43;;;;;;;5.15;1.55;;;25.50;83.60;;;;;;5011858;28;20026;-52
2023/07/20 10:15:21;;;;;;;4.03;1.63;;;25.30;84.30;;;;;;5012058;28;20108;-51
2023/07/20 10:18:09;;;;;;;3.60;1.60;;;25.30;84.50;;;;;;5011653;28;20054;-52
2023/07/20 10:20:38;;;;;;;2.03;1.60;;;25.10;84.90;;;;;;5012073;28;20485;-52
2023/07/20 10:23:04;;;;;;;4.70;1.42;;;25.00;85.20;;;;;;5011062;28;20402;-51
2023/07/20 10:25:31;;;;;;;5.35;1.48;;;25.10;85.70;;;;;;4994466;28;20022;-55
2023/07/20 10:27:58;;;;;;;6.60;1.95;;;25.10;85.90;;;;;;5011634;28;20060;-55
2023/07/20 10:30:25;;;;;;;5.95;1.73;;;25.00;85.70;;;;;;4994365;28;20037;-55
2023/07/20 10:32:52;;;;;;;1.85;1.55;;;25.00;85.30;;;;;;5011816;28;20168;-56
2023/07/20 10:35:18;;;;;;;3.95;1.45;;;25.00;85.90;;;;;;5011717;28;20112;-55
2023/07/20 10:37:50;;;;;;;5.10;1.40;;;24.80;86.70;;;;;;5011628;28;20048;-55
2023/07/20 10:40:33;;;;;;;3.55;1.63;;;24.60;86.70;;;;;;5011826;28;20025;-54
2023/07/20 10:43:06;;;;;;;4.13;1.20;;;24.50;87.50;;;;;;5011932;28;20023;-50
2023/07/20 10:45:51;;;;;;;5.10;1.98;;;24.40;88.00;;;;;;5012240;28;20458;-51
2023/07/20 10:48:21;;;;;;;5.05;1.60;;;24.50;88.40;;;;;;4994041;28;20029;-54
2023/07/20 10:51:14;;;;;;;5.53;1.92;;;24.60;88.70;;;;;;4994030;28;20121;-46
2023/07/20 10:53:40;;;;;;;1.58;1.45;;;24.80;88.40;;;;;;4993987;28;20616;-48
2023/07/20 10:56:08;;;;;;;7.70;6.22;;;25.00;87.20;;;;;;5011600;28;20026;-49
2023/07/20 10:58:34;;;;;;;17.80;12.18;;;25.20;87.10;;;;;;5010531;28;20509;-46
2023/07/20 11:01:04;;;;;;;12.65;8.88;;;25.30;86.40;;;;;;5016731;28;20125;-46
2023/07/20 11:03:33;;;;;;;2.40;1.58;;;25.60;86.20;;;;;;5013290;28;20211;-49
2023/07/20 11:05:59;;;;;;;3.80;1.50;;;25.60;85.00;;;;;;5014357;28;20017;-49
2023/07/20 11:08:41;;;;;;;1.45;1.20;;;25.70;84.40;;;;;;5022306;28;20029;-50
2023/07/20 11:11:23;;;;;;;1.85;1.40;;;25.80;85.50;;;;;;5013748;28;20481;-47
2023/07/20 11:14:00;;;;;;;3.10;1.75;;;25.90;84.20;;;;;;5020256;28;20029;-44
2023/07/20 11:16:41;;;;;;;2.95;1.73;;;25.80;84.40;;;;;;5010197;28;20179;-45
2023/07/20 11:19:18;;;;;;;2.80;1.25;;;25.90;85.20;;;;;;5022808;28;20021;-45
2023/07/20 11:21:46;;;;;;;3.55;1.25;;;26.10;85.30;;;;;;5030469;28;20152;-47
2023/07/20 11:24:13;;;;;;;3.75;1.30;;;26.10;84.20;;;;;;5013411;28;20079;-44
2023/07/20 11:26:44;;;;;;;3.47;1.48;;;26.00;83.10;;;;;;5030761;28;20041;-44
2023/07/20 11:29:10;;;;;;;3.20;1.50;;;25.80;82.50;;;;;;5031312;28;20036;-47
2023/07/20 11:31:41;;;;;;;2.85;1.58;;;25.80;82.70;;;;;;5030850;28;20493;-45
2023/07/20 11:34:17;;;;;;;2.95;1.52;;;25.70;83.30;;;;;;5031700;28;20622;-45
2023/07/20 11:36:45;;;;;;;4.40;1.80;;;25.80;83.30;;;;;;5029312;28;20031;-45
2023/07/20 11:39:12;;;;;;;3.80;1.35;;;25.90;82.30;;;;;;5026462;28;20076;-42
2023/07/20 11:41:39;;;;;;;1.48;1.33;;;25.90;82.70;;;;;;5035426;28;20026;-45
2023/07/20 11:44:12;;;;;;;4.25;1.50;;;25.70;82.80;;;;;;5035112;28;20452;-46
2023/07/20 11:46:39;;;;;;;2.72;1.67;;;25.60;82.10;;;;;;5034546;28;20037;-45
2023/07/20 11:49:05;;;;;;;6.25;2.08;;;25.50;82.50;;;;;;5031148;28;20440;-45
2023/07/20 11:51:32;;;;;;;2.47;1.90;;;25.60;83.30;;;;;;5020745;28;20485;-49
2023/07/20 11:53:58;;;;;;;3.20;2.00;;;25.60;82.80;;;;;;5020105;28;20305;-46
2023/07/20 11:56:25;;;;;;;4.13;2.00;;;25.40;82.90;;;;;;5021744;28;20022;-47
2023/07/20 11:58:50;;;;;;;4.13;2.70;;;25.00;84.30;;;;;;5034289;28;20033;-46
2023/07/20 12:01:17;;;;;;;3.92;1.70;;;25.00;85.60;;;;;;5034559;28;20029;-51
2023/07/20 12:03:43;;;;;;;5.70;1.88;;;24.90;84.10;;;;;;5023813;28;20538;-50
2023/07/20 12:06:10;;;;;;;6.95;1.80;;;24.90;84.20;;;;;;5025368;28;20030;-47
2023/07/20 12:08:40;;;;;;;4.00;1.42;;;24.90;85.10;;;;;;5021341;28;20033;-51
2023/07/20 12:11:05;;;;;;;6.68;1.63;;;25.00;84.00;;;;;;5009343;28;20036;-54
2023/07/20 12:13:47;;;;;;;4.78;1.20;;;25.10;84.50;;;;;;5014604;28;20101;-49
2023/07/20 12:16:14;;;;;;;5.80;2.13;;;25.10;83.80;;;;;;5026128;28;20026;-53
2023/07/20 12:18:41;;;;;;;4.55;2.72;;;25.30;84.00;;;;;;5015084;28;20033;-48
2023/07/20 12:21:08;;;;;;;3.33;1.75;;;25.40;84.80;;;;;;4991166;28;20026;-54
2023/07/20 12:23:42;;;;;;;2.58;2.03;;;25.50;85.20;;;;;;5008206;28;20080;-51
2023/07/20 12:26:09;;;;;;;2.35;1.40;;;25.40;83.80;;;;;;5013812;28;20455;-50
2023/07/20 12:28:41;;;;;;;2.83;1.40;;;25.20;84.70;;;;;;5012500;28;20037;-52
2023/07/20 12:31:08;;;;;;;3.42;1.55;;;25.10;84.60;;;;;;5006143;28;20046;-47
2023/07/20 12:33:33;;;;;;;2.78;1.63;;;25.10;84.80;;;;;;5010832;28;20038;-53
2023/07/20 12:36:01;;;;;;;2.58;1.30;;;25.00;84.50;;;;;;5009261;28;20037;-56
2023/07/20 12:38:27;;;;;;;2.50;1.30;;;25.00;83.90;;;;;;5012971;28;20036;-62
2023/07/20 12:40:54;;;;;;;2.47;1.70;;;25.00;83.40;;;;;;4991677;28;20026;-50
2023/07/20 12:43:20;;;;;;;2.00;1.75;;;25.10;83.90;;;;;;5010135;28;20021;-62
2023/07/20 12:45:46;;;;;;;2.95;1.50;;;25.10;83.90;;;;;;5012022;28;20112;-55